sensor_id;sensor_type;location;lat;lon;timestamp;P1;durP1;ratioP1;P2;durP2;ratioP2
60973;SDS011;46846;51.528;5.076;2022-07-29T00:00:58;353.50;;;336.05;;
60973;SDS011;46846;51.528;5.076;2022-07-29T00:03:24;338.83;;;322.15;;
60973;SDS011;46846;51.528;5.076;2022-07-29T00:05:49;345.08;;;328.02;;
60973;SDS011;46846;51.528;5.076;2022-07-29T00:08:16;352.60;;;335.23;;
60973;SDS011;46846;51.528;5.076;2022-07-29T00:10:42;358.35;;;340.75;;
60973;SDS011;46846;51.528;5.076;2022-07-29T00:13:08;348.73;;;331.58;;
60973;SDS011;46846;51.528;5.076;2022-07-29T00:15:33;350.20;;;333.00;;
60973;SDS011;46846;51.528;5.076;2022-07-29T00:17:59;348.48;;;331.38;;
60973;SDS011;46846;51.528;5.076;2022-07-29T00:20:24;347.10;;;330.02;;
60973;SDS011;46846;51.528;5.076;2022-07-29T00:22:50;331.92;;;315.55;;
60973;SDS011;46846;51.528;5.076;2022-07-29T00:25:15;348.92;;;331.83;;
60973;SDS011;46846;51.528;5.076;2022-07-29T00:27:40;339.48;;;322.52;;
60973;SDS011;46846;51.528;5.076;2022-07-29T00:30:06;338.95;;;322.23;;
60973;SDS011;46846;51.528;5.076;2022-07-29T00:32:32;341.40;;;324.55;;
60973;SDS011;46846;51.528;5.076;2022-07-29T00:34:58;345.33;;;327.92;;
60973;SDS011;46846;51.528;5.076;2022-07-29T00:37:42;340.83;;;324.07;;
60973;SDS011;46846;51.528;5.076;2022-07-29T00:40:07;353.35;;;336.05;;
60973;SDS011;46846;51.528;5.076;2022-07-29T00:42:43;344.35;;;327.40;;
60973;SDS011;46846;51.528;5.076;2022-07-29T00:45:09;329.88;;;313.38;;
60973;SDS011;46846;51.528;5.076;2022-07-29T00:47:35;343.98;;;327.08;;
60973;SDS011;46846;51.528;5.076;2022-07-29T00:50:00;339.70;;;322.80;;
60973;SDS011;46846;51.528;5.076;2022-07-29T00:52:26;346.08;;;329.13;;
60973;SDS011;46846;51.528;5.076;2022-07-29T00:54:51;338.27;;;321.42;;
60973;SDS011;46846;51.528;5.076;2022-07-29T00:57:17;344.35;;;327.35;;
60973;SDS011;46846;51.528;5.076;2022-07-29T00:59:42;350.75;;;333.58;;
60973;SDS011;46846;51.528;5.076;2022-07-29T01:02:08;328.45;;;312.02;;
60973;SDS011;46846;51.528;5.076;2022-07-29T01:04:34;348.48;;;331.23;;
60973;SDS011;46846;51.528;5.076;2022-07-29T01:07:03;346.10;;;329.08;;
60973;SDS011;46846;51.528;5.076;2022-07-29T01:09:31;355.40;;;337.83;;
60973;SDS011;46846;51.528;5.076;2022-07-29T01:11:57;344.08;;;327.17;;
60973;SDS011;46846;51.528;5.076;2022-07-29T01:14:23;338.60;;;321.98;;
60973;SDS011;46846;51.528;5.076;2022-07-29T01:17:08;332.38;;;316.05;;
60973;SDS011;46846;51.528;5.076;2022-07-29T01:30:24;319.58;;;303.83;;
60973;SDS011;46846;51.528;5.076;2022-07-29T01:32:54;331.10;;;314.77;;
60973;SDS011;46846;51.528;5.076;2022-07-29T01:35:25;330.02;;;313.77;;
60973;SDS011;46846;51.528;5.076;2022-07-29T01:40:58;325.77;;;309.77;;
60973;SDS011;46846;51.528;5.076;2022-07-29T01:43:33;323.38;;;307.33;;
60973;SDS011;46846;51.528;5.076;2022-07-29T01:46:36;321.63;;;305.77;;
60973;SDS011;46846;51.528;5.076;2022-07-29T01:49:23;330.00;;;313.73;;
60973;SDS011;46846;51.528;5.076;2022-07-29T01:51:53;330.70;;;314.40;;
60973;SDS011;46846;51.528;5.076;2022-07-29T01:54:29;328.80;;;312.52;;
60973;SDS011;46846;51.528;5.076;2022-07-29T01:56:59;328.10;;;311.80;;
60973;SDS011;46846;51.528;5.076;2022-07-29T01:59:26;329.42;;;313.13;;
60973;SDS011;46846;51.528;5.076;2022-07-29T02:01:54;340.27;;;323.55;;
60973;SDS011;46846;51.528;5.076;2022-07-29T02:04:22;330.35;;;314.05;;
60973;SDS011;46846;51.528;5.076;2022-07-29T02:06:49;332.98;;;316.45;;
60973;SDS011;46846;51.528;5.076;2022-07-29T02:09:17;336.50;;;319.98;;
60973;SDS011;46846;51.528;5.076;2022-07-29T02:11:47;320.65;;;304.58;;
60973;SDS011;46846;51.528;5.076;2022-07-29T02:14:16;338.25;;;321.65;;
60973;SDS011;46846;51.528;5.076;2022-07-29T02:16:43;306.40;;;291.17;;
60973;SDS011;46846;51.528;5.076;2022-07-29T02:19:10;328.95;;;312.70;;
60973;SDS011;46846;51.528;5.076;2022-07-29T02:21:38;325.40;;;308.90;;
60973;SDS011;46846;51.528;5.076;2022-07-29T02:24:05;331.00;;;314.58;;
60973;SDS011;46846;51.528;5.076;2022-07-29T02:26:32;326.77;;;310.63;;
60973;SDS011;46846;51.528;5.076;2022-07-29T02:28:58;323.23;;;307.08;;
60973;SDS011;46846;51.528;5.076;2022-07-29T02:31:31;318.48;;;302.80;;
60973;SDS011;46846;51.528;5.076;2022-07-29T02:33:59;327.33;;;311.17;;
60973;SDS011;46846;51.528;5.076;2022-07-29T02:36:27;320.38;;;304.63;;
60973;SDS011;46846;51.528;5.076;2022-07-29T02:38:54;345.80;;;328.85;;
60973;SDS011;46846;51.528;5.076;2022-07-29T02:41:44;333.88;;;317.40;;
60973;SDS011;46846;51.528;5.076;2022-07-29T02:44:12;322.33;;;306.15;;
60973;SDS011;46846;51.528;5.076;2022-07-29T02:46:47;328.00;;;311.67;;
60973;SDS011;46846;51.528;5.076;2022-07-29T02:51:58;310.33;;;294.98;;
60973;SDS011;46846;51.528;5.076;2022-07-29T02:54:51;313.17;;;297.55;;
60973;SDS011;46846;51.528;5.076;2022-07-29T02:57:22;324.83;;;308.90;;
60973;SDS011;46846;51.528;5.076;2022-07-29T03:00:07;317.45;;;301.85;;
60973;SDS011;46846;51.528;5.076;2022-07-29T03:02:38;315.17;;;299.52;;
60973;SDS011;46846;51.528;5.076;2022-07-29T03:05:08;321.58;;;305.67;;
60973;SDS011;46846;51.528;5.076;2022-07-29T03:07:36;329.02;;;312.88;;
60973;SDS011;46846;51.528;5.076;2022-07-29T03:10:04;319.15;;;303.20;;
60973;SDS011;46846;51.528;5.076;2022-07-29T03:12:32;320.13;;;304.38;;
60973;SDS011;46846;51.528;5.076;2022-07-29T03:14:58;330.27;;;313.92;;
60973;SDS011;46846;51.528;5.076;2022-07-29T03:17:25;326.48;;;309.98;;
60973;SDS011;46846;51.528;5.076;2022-07-29T03:19:51;321.38;;;305.38;;
60973;SDS011;46846;51.528;5.076;2022-07-29T03:22:17;314.98;;;298.92;;
60973;SDS011;46846;51.528;5.076;2022-07-29T03:24:42;311.38;;;296.02;;
60973;SDS011;46846;51.528;5.076;2022-07-29T03:27:08;313.65;;;298.15;;
60973;SDS011;46846;51.528;5.076;2022-07-29T03:29:33;318.60;;;302.55;;
60973;SDS011;46846;51.528;5.076;2022-07-29T03:31:59;310.98;;;295.40;;
60973;SDS011;46846;51.528;5.076;2022-07-29T03:34:24;295.48;;;280.80;;
60973;SDS011;46846;51.528;5.076;2022-07-29T03:36:50;304.75;;;289.65;;
60973;SDS011;46846;51.528;5.076;2022-07-29T03:39:17;317.83;;;301.92;;
60973;SDS011;46846;51.528;5.076;2022-07-29T03:41:47;326.92;;;310.77;;
60973;SDS011;46846;51.528;5.076;2022-07-29T03:44:16;298.52;;;283.75;;
60973;SDS011;46846;51.528;5.076;2022-07-29T03:46:43;308.23;;;292.83;;
60973;SDS011;46846;51.528;5.076;2022-07-29T03:49:11;309.42;;;293.83;;
60973;SDS011;46846;51.528;5.076;2022-07-29T03:51:39;311.90;;;296.15;;
60973;SDS011;46846;51.528;5.076;2022-07-29T03:54:04;312.70;;;297.05;;
60973;SDS011;46846;51.528;5.076;2022-07-29T03:56:31;309.02;;;293.73;;
60973;SDS011;46846;51.528;5.076;2022-07-29T03:58:59;308.73;;;293.23;;
60973;SDS011;46846;51.528;5.076;2022-07-29T04:01:26;318.05;;;302.42;;
60973;SDS011;46846;51.528;5.076;2022-07-29T04:03:53;302.63;;;287.58;;
60973;SDS011;46846;51.528;5.076;2022-07-29T04:06:18;313.17;;;297.67;;
60973;SDS011;46846;51.528;5.076;2022-07-29T04:08:44;304.02;;;288.88;;
60973;SDS011;46846;51.528;5.076;2022-07-29T04:11:09;318.60;;;302.83;;
60973;SDS011;46846;51.528;5.076;2022-07-29T04:13:35;296.80;;;282.13;;
60973;SDS011;46846;51.528;5.076;2022-07-29T04:16:00;297.83;;;282.73;;
60973;SDS011;46846;51.528;5.076;2022-07-29T04:18:25;296.80;;;282.02;;
60973;SDS011;46846;51.528;5.076;2022-07-29T04:20:51;308.20;;;292.95;;
60973;SDS011;46846;51.528;5.076;2022-07-29T04:23:16;296.48;;;281.58;;
60973;SDS011;46846;51.528;5.076;2022-07-29T04:25:42;318.83;;;303.10;;
60973;SDS011;46846;51.528;5.076;2022-07-29T04:28:08;298.92;;;284.15;;
60973;SDS011;46846;51.528;5.076;2022-07-29T04:30:35;301.80;;;286.92;;
60973;SDS011;46846;51.528;5.076;2022-07-29T04:33:02;309.48;;;294.00;;
60973;SDS011;46846;51.528;5.076;2022-07-29T04:35:29;305.20;;;290.10;;
60973;SDS011;46846;51.528;5.076;2022-07-29T04:37:55;299.15;;;284.15;;
60973;SDS011;46846;51.528;5.076;2022-07-29T04:40:21;318.00;;;302.27;;
60973;SDS011;46846;51.528;5.076;2022-07-29T04:42:46;295.90;;;281.13;;
60973;SDS011;46846;51.528;5.076;2022-07-29T04:45:12;301.65;;;286.70;;
60973;SDS011;46846;51.528;5.076;2022-07-29T04:47:37;308.77;;;293.13;;
60973;SDS011;46846;51.528;5.076;2022-07-29T04:50:03;310.77;;;295.45;;
60973;SDS011;46846;51.528;5.076;2022-07-29T04:52:30;292.42;;;277.85;;
60973;SDS011;46846;51.528;5.076;2022-07-29T04:54:55;297.02;;;282.20;;
60973;SDS011;46846;51.528;5.076;2022-07-29T04:57:21;303.98;;;288.85;;
60973;SDS011;46846;51.528;5.076;2022-07-29T04:59:46;314.67;;;299.10;;
60973;SDS011;46846;51.528;5.076;2022-07-29T05:02:11;301.58;;;286.52;;
60973;SDS011;46846;51.528;5.076;2022-07-29T05:04:37;305.50;;;290.35;;
60973;SDS011;46846;51.528;5.076;2022-07-29T05:07:02;294.98;;;280.35;;
60973;SDS011;46846;51.528;5.076;2022-07-29T05:09:27;284.85;;;270.60;;
60973;SDS011;46846;51.528;5.076;2022-07-29T05:11:53;303.33;;;288.33;;
60973;SDS011;46846;51.528;5.076;2022-07-29T05:14:18;301.35;;;286.48;;
60973;SDS011;46846;51.528;5.076;2022-07-29T05:16:43;314.90;;;299.23;;
60973;SDS011;46846;51.528;5.076;2022-07-29T05:19:09;298.55;;;283.55;;
60973;SDS011;46846;51.528;5.076;2022-07-29T05:21:34;306.27;;;291.15;;
60973;SDS011;46846;51.528;5.076;2022-07-29T05:24:00;301.42;;;286.45;;
60973;SDS011;46846;51.528;5.076;2022-07-29T05:26:26;291.50;;;276.85;;
60973;SDS011;46846;51.528;5.076;2022-07-29T05:28:51;296.58;;;281.50;;
60973;SDS011;46846;51.528;5.076;2022-07-29T05:31:17;284.20;;;269.35;;
60973;SDS011;46846;51.528;5.076;2022-07-29T05:33:42;297.98;;;283.23;;
60973;SDS011;46846;51.528;5.076;2022-07-29T05:36:07;305.95;;;290.77;;
60973;SDS011;46846;51.528;5.076;2022-07-29T05:38:33;310.20;;;294.85;;
60973;SDS011;46846;51.528;5.076;2022-07-29T05:40:59;280.35;;;266.42;;
60973;SDS011;46846;51.528;5.076;2022-07-29T05:43:26;301.52;;;286.50;;
60973;SDS011;46846;51.528;5.076;2022-07-29T05:45:52;291.42;;;276.95;;
60973;SDS011;46846;51.528;5.076;2022-07-29T05:48:17;313.00;;;297.33;;
60973;SDS011;46846;51.528;5.076;2022-07-29T05:50:43;302.35;;;287.35;;
60973;SDS011;46846;51.528;5.076;2022-07-29T05:53:08;306.02;;;290.75;;
60973;SDS011;46846;51.528;5.076;2022-07-29T05:55:33;292.35;;;277.88;;
60973;SDS011;46846;51.528;5.076;2022-07-29T05:57:59;296.33;;;281.42;;
60973;SDS011;46846;51.528;5.076;2022-07-29T06:00:24;297.90;;;282.77;;
60973;SDS011;46846;51.528;5.076;2022-07-29T06:02:50;302.50;;;287.42;;
60973;SDS011;46846;51.528;5.076;2022-07-29T06:05:16;304.15;;;288.75;;
60973;SDS011;46846;51.528;5.076;2022-07-29T06:07:42;292.48;;;277.92;;
60973;SDS011;46846;51.528;5.076;2022-07-29T06:10:07;299.55;;;284.60;;
60973;SDS011;46846;51.528;5.076;2022-07-29T06:12:34;291.17;;;276.70;;
60973;SDS011;46846;51.528;5.076;2022-07-29T06:14:59;298.30;;;283.52;;
60973;SDS011;46846;51.528;5.076;2022-07-29T06:17:24;280.08;;;265.83;;
60973;SDS011;46846;51.528;5.076;2022-07-29T06:19:50;291.45;;;276.90;;
60973;SDS011;46846;51.528;5.076;2022-07-29T06:22:15;294.00;;;279.40;;
60973;SDS011;46846;51.528;5.076;2022-07-29T06:24:42;285.88;;;271.42;;
60973;SDS011;46846;51.528;5.076;2022-07-29T06:27:09;293.63;;;279.02;;
60973;SDS011;46846;51.528;5.076;2022-07-29T06:29:37;300.83;;;285.92;;
60973;SDS011;46846;51.528;5.076;2022-07-29T06:32:03;294.27;;;279.60;;
60973;SDS011;46846;51.528;5.076;2022-07-29T06:34:29;295.80;;;280.98;;
60973;SDS011;46846;51.528;5.076;2022-07-29T06:36:54;305.65;;;290.58;;
60973;SDS011;46846;51.528;5.076;2022-07-29T06:39:20;298.63;;;283.80;;
60973;SDS011;46846;51.528;5.076;2022-07-29T06:41:46;307.65;;;292.35;;
60973;SDS011;46846;51.528;5.076;2022-07-29T06:44:13;299.60;;;283.92;;
60973;SDS011;46846;51.528;5.076;2022-07-29T06:46:39;308.73;;;293.27;;
60973;SDS011;46846;51.528;5.076;2022-07-29T06:49:04;308.50;;;293.30;;
60973;SDS011;46846;51.528;5.076;2022-07-29T06:51:30;292.33;;;277.77;;
60973;SDS011;46846;51.528;5.076;2022-07-29T06:53:55;294.85;;;280.20;;
60973;SDS011;46846;51.528;5.076;2022-07-29T06:56:22;306.55;;;291.45;;
60973;SDS011;46846;51.528;5.076;2022-07-29T06:58:47;297.30;;;282.30;;
60973;SDS011;46846;51.528;5.076;2022-07-29T07:01:13;291.40;;;276.40;;
60973;SDS011;46846;51.528;5.076;2022-07-29T07:03:38;302.95;;;287.20;;
60973;SDS011;46846;51.528;5.076;2022-07-29T07:06:04;303.65;;;288.42;;
60973;SDS011;46846;51.528;5.076;2022-07-29T07:08:29;309.15;;;293.48;;
60973;SDS011;46846;51.528;5.076;2022-07-29T07:10:54;303.08;;;287.92;;
60973;SDS011;46846;51.528;5.076;2022-07-29T07:13:21;311.35;;;295.85;;
60973;SDS011;46846;51.528;5.076;2022-07-29T07:15:46;300.77;;;285.13;;
60973;SDS011;46846;51.528;5.076;2022-07-29T07:18:13;301.45;;;284.27;;
60973;SDS011;46846;51.528;5.076;2022-07-29T07:20:39;306.80;;;290.95;;
60973;SDS011;46846;51.528;5.076;2022-07-29T07:23:05;287.40;;;273.00;;
60973;SDS011;46846;51.528;5.076;2022-07-29T07:25:31;301.67;;;286.42;;
60973;SDS011;46846;51.528;5.076;2022-07-29T07:27:56;311.10;;;294.65;;
60973;SDS011;46846;51.528;5.076;2022-07-29T07:30:22;309.55;;;294.05;;
60973;SDS011;46846;51.528;5.076;2022-07-29T07:32:47;310.10;;;294.67;;
60973;SDS011;46846;51.528;5.076;2022-07-29T07:35:13;289.80;;;275.40;;
60973;SDS011;46846;51.528;5.076;2022-07-29T07:37:39;288.73;;;273.83;;
60973;SDS011;46846;51.528;5.076;2022-07-29T07:40:05;293.17;;;278.40;;
60973;SDS011;46846;51.528;5.076;2022-07-29T07:42:31;317.55;;;301.52;;
60973;SDS011;46846;51.528;5.076;2022-07-29T07:44:57;322.92;;;306.75;;
60973;SDS011;46846;51.528;5.076;2022-07-29T07:47:22;312.00;;;296.35;;
60973;SDS011;46846;51.528;5.076;2022-07-29T07:49:49;302.45;;;287.20;;
60973;SDS011;46846;51.528;5.076;2022-07-29T07:52:16;317.40;;;301.70;;
60973;SDS011;46846;51.528;5.076;2022-07-29T07:54:43;312.00;;;296.40;;
60973;SDS011;46846;51.528;5.076;2022-07-29T07:57:10;321.80;;;305.75;;
60973;SDS011;46846;51.528;5.076;2022-07-29T07:59:36;311.55;;;295.27;;
60973;SDS011;46846;51.528;5.076;2022-07-29T08:02:01;308.95;;;293.55;;
60973;SDS011;46846;51.528;5.076;2022-07-29T08:04:26;309.02;;;293.48;;
60973;SDS011;46846;51.528;5.076;2022-07-29T08:06:52;321.63;;;305.73;;
60973;SDS011;46846;51.528;5.076;2022-07-29T08:09:19;318.25;;;302.30;;
60973;SDS011;46846;51.528;5.076;2022-07-29T08:11:45;336.80;;;320.23;;
60973;SDS011;46846;51.528;5.076;2022-07-29T08:14:11;317.02;;;301.25;;
60973;SDS011;46846;51.528;5.076;2022-07-29T08:16:38;329.77;;;313.33;;
60973;SDS011;46846;51.528;5.076;2022-07-29T08:19:04;324.00;;;307.85;;
60973;SDS011;46846;51.528;5.076;2022-07-29T08:21:30;325.85;;;309.73;;
60973;SDS011;46846;51.528;5.076;2022-07-29T08:23:55;312.40;;;296.83;;
60973;SDS011;46846;51.528;5.076;2022-07-29T08:26:41;332.05;;;315.38;;
60973;SDS011;46846;51.528;5.076;2022-07-29T08:29:07;335.95;;;319.30;;
60973;SDS011;46846;51.528;5.076;2022-07-29T08:31:34;328.10;;;311.25;;
60973;SDS011;46846;51.528;5.076;2022-07-29T08:34:00;330.42;;;313.75;;
60973;SDS011;46846;51.528;5.076;2022-07-29T08:36:25;330.50;;;313.95;;
60973;SDS011;46846;51.528;5.076;2022-07-29T08:38:51;326.50;;;310.35;;
60973;SDS011;46846;51.528;5.076;2022-07-29T08:41:17;334.52;;;318.08;;
60973;SDS011;46846;51.528;5.076;2022-07-29T08:43:44;323.15;;;306.90;;
60973;SDS011;46846;51.528;5.076;2022-07-29T08:46:10;349.52;;;332.20;;
60973;SDS011;46846;51.528;5.076;2022-07-29T08:48:35;341.17;;;324.15;;
60973;SDS011;46846;51.528;5.076;2022-07-29T08:51:02;329.67;;;313.38;;
60973;SDS011;46846;51.528;5.076;2022-07-29T08:53:28;344.58;;;327.50;;
60973;SDS011;46846;51.528;5.076;2022-07-29T08:55:54;351.42;;;334.13;;
60973;SDS011;46846;51.528;5.076;2022-07-29T08:58:21;342.55;;;325.73;;
60973;SDS011;46846;51.528;5.076;2022-07-29T09:00:51;352.65;;;335.15;;
60973;SDS011;46846;51.528;5.076;2022-07-29T09:03:19;348.45;;;331.27;;
60973;SDS011;46846;51.528;5.076;2022-07-29T09:05:47;359.83;;;342.10;;
60973;SDS011;46846;51.528;5.076;2022-07-29T09:08:14;344.08;;;326.98;;
60973;SDS011;46846;51.528;5.076;2022-07-29T09:10:40;356.25;;;337.70;;
60973;SDS011;46846;51.528;5.076;2022-07-29T09:13:06;361.30;;;343.00;;
60973;SDS011;46846;51.528;5.076;2022-07-29T09:15:31;355.75;;;338.15;;
60973;SDS011;46846;51.528;5.076;2022-07-29T09:17:57;359.25;;;341.52;;
60973;SDS011;46846;51.528;5.076;2022-07-29T09:20:24;362.52;;;344.45;;
60973;SDS011;46846;51.528;5.076;2022-07-29T09:22:52;369.48;;;351.27;;
60973;SDS011;46846;51.528;5.076;2022-07-29T09:25:40;355.60;;;338.08;;
60973;SDS011;46846;51.528;5.076;2022-07-29T09:28:06;378.30;;;359.63;;
60973;SDS011;46846;51.528;5.076;2022-07-29T09:30:53;354.10;;;336.48;;
60973;SDS011;46846;51.528;5.076;2022-07-29T09:33:21;364.13;;;345.92;;
60973;SDS011;46846;51.528;5.076;2022-07-29T09:36:02;359.92;;;342.13;;
60973;SDS011;46846;51.528;5.076;2022-07-29T09:38:29;359.38;;;341.42;;
60973;SDS011;46846;51.528;5.076;2022-07-29T09:40:58;363.40;;;345.05;;
60973;SDS011;46846;51.528;5.076;2022-07-29T09:43:26;358.73;;;340.38;;
60973;SDS011;46846;51.528;5.076;2022-07-29T09:45:52;358.13;;;340.27;;
60973;SDS011;46846;51.528;5.076;2022-07-29T09:48:19;375.23;;;356.73;;
60973;SDS011;46846;51.528;5.076;2022-07-29T09:50:46;388.55;;;369.45;;
60973;SDS011;46846;51.528;5.076;2022-07-29T09:55:59;389.23;;;370.10;;
60973;SDS011;46846;51.528;5.076;2022-07-29T09:58:25;381.35;;;362.42;;
60973;SDS011;46846;51.528;5.076;2022-07-29T10:00:51;384.75;;;365.80;;
60973;SDS011;46846;51.528;5.076;2022-07-29T10:03:18;391.15;;;372.00;;
60973;SDS011;46846;51.528;5.076;2022-07-29T10:05:44;385.65;;;366.25;;
60973;SDS011;46846;51.528;5.076;2022-07-29T10:08:11;370.17;;;351.58;;
60973;SDS011;46846;51.528;5.076;2022-07-29T10:10:40;386.67;;;367.77;;
60973;SDS011;46846;51.528;5.076;2022-07-29T10:13:08;397.83;;;377.70;;
60973;SDS011;46846;51.528;5.076;2022-07-29T10:15:37;396.52;;;376.95;;
60973;SDS011;46846;51.528;5.076;2022-07-29T10:18:06;369.15;;;350.92;;
60973;SDS011;46846;51.528;5.076;2022-07-29T10:20:32;400.63;;;381.02;;
60973;SDS011;46846;51.528;5.076;2022-07-29T10:22:58;387.98;;;368.67;;
60973;SDS011;46846;51.528;5.076;2022-07-29T10:25:24;394.88;;;375.35;;
60973;SDS011;46846;51.528;5.076;2022-07-29T10:27:50;375.58;;;356.98;;
60973;SDS011;46846;51.528;5.076;2022-07-29T10:30:17;382.77;;;363.30;;
60973;SDS011;46846;51.528;5.076;2022-07-29T10:32:51;392.58;;;373.38;;
60973;SDS011;46846;51.528;5.076;2022-07-29T10:35:38;389.05;;;369.15;;
60973;SDS011;46846;51.528;5.076;2022-07-29T10:38:27;402.20;;;381.92;;
60973;SDS011;46846;51.528;5.076;2022-07-29T10:43:57;394.70;;;375.33;;
60973;SDS011;46846;51.528;5.076;2022-07-29T10:46:35;405.65;;;385.35;;
60973;SDS011;46846;51.528;5.076;2022-07-29T10:54:16;425.08;;;404.30;;
60973;SDS011;46846;51.528;5.076;2022-07-29T10:59:39;403.48;;;383.73;;
60973;SDS011;46846;51.528;5.076;2022-07-29T11:05:17;404.70;;;384.75;;
60973;SDS011;46846;51.528;5.076;2022-07-29T11:10:37;409.70;;;389.48;;
60973;SDS011;46846;51.528;5.076;2022-07-29T11:13:03;410.58;;;390.02;;
60973;SDS011;46846;51.528;5.076;2022-07-29T11:15:29;411.00;;;390.90;;
60973;SDS011;46846;51.528;5.076;2022-07-29T11:18:14;431.02;;;410.13;;
60973;SDS011;46846;51.528;5.076;2022-07-29T11:20:43;438.83;;;417.60;;
60973;SDS011;46846;51.528;5.076;2022-07-29T11:23:26;424.10;;;403.08;;
60973;SDS011;46846;51.528;5.076;2022-07-29T11:31:50;416.73;;;396.05;;
60973;SDS011;46846;51.528;5.076;2022-07-29T11:39:32;428.13;;;407.38;;
60973;SDS011;46846;51.528;5.076;2022-07-29T11:47:27;416.00;;;395.63;;
60973;SDS011;46846;51.528;5.076;2022-07-29T11:49:58;430.00;;;409.05;;
60973;SDS011;46846;51.528;5.076;2022-07-29T11:52:38;438.45;;;417.25;;
60973;SDS011;46846;51.528;5.076;2022-07-29T11:55:08;426.58;;;405.83;;
60973;SDS011;46846;51.528;5.076;2022-07-29T11:57:35;431.23;;;410.00;;
60973;SDS011;46846;51.528;5.076;2022-07-29T12:00:01;429.70;;;408.90;;
60973;SDS011;46846;51.528;5.076;2022-07-29T12:02:37;433.73;;;412.60;;
60973;SDS011;46846;51.528;5.076;2022-07-29T12:05:07;432.05;;;410.98;;
60973;SDS011;46846;51.528;5.076;2022-07-29T12:07:34;443.40;;;422.00;;
60973;SDS011;46846;51.528;5.076;2022-07-29T12:10:02;438.70;;;417.15;;
60973;SDS011;46846;51.528;5.076;2022-07-29T12:12:30;449.60;;;427.80;;
60973;SDS011;46846;51.528;5.076;2022-07-29T12:14:55;426.20;;;405.55;;
60973;SDS011;46846;51.528;5.076;2022-07-29T12:17:25;452.27;;;429.95;;
60973;SDS011;46846;51.528;5.076;2022-07-29T12:19:54;435.60;;;414.30;;
60973;SDS011;46846;51.528;5.076;2022-07-29T12:22:27;431.70;;;410.73;;
60973;SDS011;46846;51.528;5.076;2022-07-29T12:25:05;432.70;;;411.52;;
60973;SDS011;46846;51.528;5.076;2022-07-29T12:27:36;429.23;;;408.38;;
60973;SDS011;46846;51.528;5.076;2022-07-29T12:30:07;435.58;;;414.48;;
60973;SDS011;46846;51.528;5.076;2022-07-29T12:32:34;428.58;;;407.58;;
60973;SDS011;46846;51.528;5.076;2022-07-29T12:35:12;433.58;;;412.63;;
60973;SDS011;46846;51.528;5.076;2022-07-29T12:37:40;422.85;;;402.27;;
60973;SDS011;46846;51.528;5.076;2022-07-29T12:40:07;438.10;;;416.65;;
60973;SDS011;46846;51.528;5.076;2022-07-29T12:42:34;443.95;;;422.08;;
60973;SDS011;46846;51.528;5.076;2022-07-29T12:45:00;445.65;;;424.10;;
60973;SDS011;46846;51.528;5.076;2022-07-29T12:47:27;450.38;;;428.58;;
60973;SDS011;46846;51.528;5.076;2022-07-29T12:50:11;438.98;;;417.70;;
60973;SDS011;46846;51.528;5.076;2022-07-29T12:52:42;442.90;;;421.25;;
60973;SDS011;46846;51.528;5.076;2022-07-29T12:55:09;438.50;;;417.05;;
60973;SDS011;46846;51.528;5.076;2022-07-29T12:57:52;455.50;;;433.33;;
60973;SDS011;46846;51.528;5.076;2022-07-29T13:00:21;449.70;;;427.88;;
60973;SDS011;46846;51.528;5.076;2022-07-29T13:02:54;435.95;;;414.65;;
60973;SDS011;46846;51.528;5.076;2022-07-29T13:05:21;443.52;;;422.02;;
60973;SDS011;46846;51.528;5.076;2022-07-29T13:07:47;452.58;;;430.83;;
60973;SDS011;46846;51.528;5.076;2022-07-29T13:10:16;451.88;;;430.08;;
60973;SDS011;46846;51.528;5.076;2022-07-29T13:15:28;441.70;;;420.30;;
60973;SDS011;46846;51.528;5.076;2022-07-29T13:17:53;436.77;;;415.65;;
60973;SDS011;46846;51.528;5.076;2022-07-29T13:20:23;442.67;;;421.20;;
60973;SDS011;46846;51.528;5.076;2022-07-29T13:22:49;439.75;;;418.35;;
60973;SDS011;46846;51.528;5.076;2022-07-29T13:25:15;442.17;;;420.50;;
60973;SDS011;46846;51.528;5.076;2022-07-29T13:27:49;453.75;;;431.38;;
60973;SDS011;46846;51.528;5.076;2022-07-29T13:30:14;432.02;;;410.88;;
60973;SDS011;46846;51.528;5.076;2022-07-29T13:32:40;436.60;;;415.45;;
60973;SDS011;46846;51.528;5.076;2022-07-29T13:35:06;445.05;;;422.95;;
60973;SDS011;46846;51.528;5.076;2022-07-29T13:37:34;456.55;;;434.50;;
60973;SDS011;46846;51.528;5.076;2022-07-29T13:40:03;442.48;;;420.92;;
60973;SDS011;46846;51.528;5.076;2022-07-29T13:42:29;438.15;;;416.45;;
60973;SDS011;46846;51.528;5.076;2022-07-29T13:44:56;454.63;;;432.55;;
60973;SDS011;46846;51.528;5.076;2022-07-29T13:47:21;449.05;;;427.33;;
60973;SDS011;46846;51.528;5.076;2022-07-29T13:49:47;459.30;;;436.95;;
60973;SDS011;46846;51.528;5.076;2022-07-29T13:52:13;458.58;;;436.42;;
60973;SDS011;46846;51.528;5.076;2022-07-29T13:54:40;458.65;;;436.38;;
60973;SDS011;46846;51.528;5.076;2022-07-29T13:57:05;452.85;;;430.98;;
60973;SDS011;46846;51.528;5.076;2022-07-29T13:59:32;451.80;;;429.98;;
60973;SDS011;46846;51.528;5.076;2022-07-29T14:01:58;468.20;;;445.70;;
60973;SDS011;46846;51.528;5.076;2022-07-29T14:04:23;464.10;;;441.70;;
60973;SDS011;46846;51.528;5.076;2022-07-29T14:06:49;469.00;;;446.27;;
60973;SDS011;46846;51.528;5.076;2022-07-29T14:09:15;474.70;;;451.88;;
60973;SDS011;46846;51.528;5.076;2022-07-29T14:11:41;447.95;;;426.33;;
60973;SDS011;46846;51.528;5.076;2022-07-29T14:14:06;454.75;;;432.83;;
60973;SDS011;46846;51.528;5.076;2022-07-29T14:16:32;459.38;;;437.17;;
60973;SDS011;46846;51.528;5.076;2022-07-29T14:18:57;454.13;;;432.17;;
60973;SDS011;46846;51.528;5.076;2022-07-29T14:21:23;458.17;;;436.10;;
60973;SDS011;46846;51.528;5.076;2022-07-29T14:23:48;471.70;;;449.10;;
60973;SDS011;46846;51.528;5.076;2022-07-29T14:26:13;464.60;;;442.10;;
60973;SDS011;46846;51.528;5.076;2022-07-29T14:28:39;454.98;;;432.95;;
60973;SDS011;46846;51.528;5.076;2022-07-29T14:31:04;454.08;;;432.17;;
60973;SDS011;46846;51.528;5.076;2022-07-29T14:33:29;464.98;;;442.58;;
60973;SDS011;46846;51.528;5.076;2022-07-29T14:35:55;454.08;;;431.60;;
60973;SDS011;46846;51.528;5.076;2022-07-29T14:38:20;459.05;;;436.65;;
60973;SDS011;46846;51.528;5.076;2022-07-29T14:40:46;455.50;;;433.45;;
60973;SDS011;46846;51.528;5.076;2022-07-29T14:43:12;458.10;;;436.02;;
60973;SDS011;46846;51.528;5.076;2022-07-29T14:45:38;451.55;;;429.65;;
60973;SDS011;46846;51.528;5.076;2022-07-29T14:48:04;452.15;;;429.85;;
60973;SDS011;46846;51.528;5.076;2022-07-29T14:50:30;452.95;;;430.92;;
60973;SDS011;46846;51.528;5.076;2022-07-29T14:52:55;437.58;;;415.95;;
60973;SDS011;46846;51.528;5.076;2022-07-29T14:55:21;465.35;;;442.25;;